KCVG/CVG METAR and TAF weather

Enter ICAO airport designator
Station Type Date Time Source
KCVG METAR 2021/01/22 05:52 UTC NOAA

KCVG 220552Z 25008KT 10SM CLR 03/M04 A2985 RMK AO2 SLP111 T00331039 10067 20028 53002


Station Type Date Time Source
KCVG Decoded METAR 2021/01/22 05:52 UTC NOAA

CINCINNATI/NORTHERN KY INTERNATIONAL , KY, United States (KCVG) 39-03N 084-40W 269M
Jan 22, 2021 - 12:52 AM EST / 2021.01.22 0552 UTC
Wind: from the WSW (250 degrees) at 9 MPH (8 KT):0
Visibility: 10 mile(s):0
Sky conditions: clear
Temperature: 37.9 F (3.3 C)
Dew Point: 25.0 F (-3.9 C)
Relative Humidity: 59%
Pressure (altimeter): 29.85 in. Hg (1010 hPa)
Pressure tendency: 0.01 inches (0.2 hPa) higher than three hours ago
ob: KCVG 220552Z 25008KT 10SM CLR 03/M04 A2985 RMK AO2 SLP111 T00331039 10067 20028 53002
cycle: 6

Station Type Date Time Source
KCVG TAF 2021/01/22 06:33 UTC NOAA

TAF KCVG 220531Z 2206/2312 25008KT P6SM FEW250
FM221400 31010KT P6SM BKN035
TEMPO 2215/2218 BKN025
FM222000 31010KT P6SM SCT035
FM230300 33006KT P6SM SKC

Example: see airport list